Broome International Airport

Airport
ICAO code: 
YBRM
IATA Code: 
BME
Summary
ICAO Region: 
APAC
Territory: 
Location: 
Broome, Western Australia
Serving: 
Broome
Elevation: 
56 ft
Coordinates: 
Aerial View: 
17° 57' 9.195" S, 122° 14' 1.577" E
Metar
Observation
YBRM 272100Z AUTO 12007KT 9999 // NCD 16/07 Q1015 RF00.0/000.0
Station
Broome Airport
Date/Time
2022-06-27 21:00:00
Wind direction
120°
Wind speed
07 kts
Lowest cloud amount
no clouds detected
Temperature
16°C
Dew point
7°C
Humidity
55%
QNH
1015 hPa
Weather condition
n/a

Runways

Designator Length Width Surface Rops
10/28 2458 45 ASP Yes/Yes
Airport map: 
Aerial View: 

SKYbrary Partners:

Safety knowledge contributed by: